Terminal Aerodrome Forecast
Issued by NWS

Home | Current Version | Previous Version | Text Only | Print | Product List | Glossary On
Versions: 1 2 3 4 5 6 7 8 9 10 11 12 13 14 15 16 17 18 19 20 21
000
FTUS43 KFGF 141130
TAFBJI
TAF
KBJI 141130Z 1412/1512 VRB04KT 4SM BR OVC003
      TEMPO 1412/1414 1SM BR
     FM141400 VRB04KT P6SM OVC008
      TEMPO 1414/1415 4SM BR
     FM141600 VRB05KT P6SM BKN025
     FM141800 08006KT P6SM BKN040
     FM150100 VRB03KT P6SM FEW250
     FM150900 VRB02KT 3SM BR FEW200=

USA.gov is the U.S. government's official web portal to all federal, state and local government web resources and services.